Ana Sayfa
METAR-TAF:

METAR-TAF

Havaalanları :

İslamabad, Pakistan

Enlem: 33-37N, Boylam: 073-06E, yükseklik: 507 m

Güncel hava durumu gözlemi

Rapor saat 21:30 UTC de 21 dakika önce yapıldı.
Rüzgar kuzeydoğudan 4 kt
Sıcaklık 25°C
Nem 65%
Basınç 1011 hPa
Görüş mesafesi 10 km veya daha fazla
4000 ft yükseklikte az bulutlu

METAR: OPRN 202130Z 05004KT 9999 FEW040 25/18 Q1011 NOSIG RMK A2985

Saat: 02:51 (21:51 UTC)

Tahmin

Rapor saat 15:30 UTC de 6 saat ve 21 dakika önce yapıldı.
Ayın 20'si saat 18 UTC'den ayın 21'si saat 24 UTC'ye kadar geçerli Tahmin
Rüzgar güney/güneydoğudan 10 kt
Görüş mesafesi: 8000 m
Geçici
ayın 21'si saat 00 UTC'den ayın 21'si saat 03 UTC'ye kadar
Görüş mesafesi: 5000 m
Toz Pusu

TAF: OPRN 201530Z 2018/2124 15010KT 8000 NSC TEMPO 2100/2103 5000 HZ NSC

4.000'den fazla havaalanı için hava durumu gözlemleri ve tahminleri (METAR ve TAF raporları).

Kullanılabilir istasyonlar harita üzerinde sarı ve kırmızı noktalarla gösterilir.

İstasyonun adını görmek için fareyi noktanın üzerinde gezdirin.

Sonrasında hava gözlem ve tahminlerini görmek için tıklayın.

Haritayı değiştirmek için: yaklaştırmak için siyah artı işaretli yeşil düğmeye ve uzaklaştırmak için de eksi işaretli düğmeye hızla tıklayın; bitişik haritalar için yeşil okları kullanın.


METAR-TAF: